Flight Track Log - Related Links

Times and Time Zones

All times are in EDT time to prevent confusion due to time zone crossing. See the N21921 flight status page for this flight to view local times or setup timezone preferences in your user account.


Time Position Orientation Groundspeed Altitude Reporting Facility
EDT Latitude Longitude Course Direction KTS MPH feet Rate Location/Type
Fri 12:29:56 PM 44.3264 -74.3669 241° Southwest 209 241 4,400  Level Boston Center
Fri 12:30:56 PM 44.3089 -74.4128 242° Southwest 164 189 5,200 850 Climbing Boston Center
Fri 12:31:56 PM 44.2917 -74.4528 239° Southwest 133 153 6,100 950 Climbing Boston Center
Fri 12:32:56 PM 44.2764 -74.4931 242° Southwest 128 147 7,100 900 Climbing Boston Center
Fri 12:33:56 PM 44.2589 -74.5358 240° Southwest 128 147 7,900 750 Climbing Boston Center
Fri 12:34:00 PM 44.2503 -74.4995 235° Southwest  Level FlightAware Approximate
Fri 12:34:56 PM 44.2436 -74.5789 244° Southwest 128 147 8,600  Level Boston Center
Fri 12:35:00 PM 44.2256 -74.5611 241° Southwest  Level FlightAware Approximate
Fri 12:35:56 PM 44.2239 -74.6217 237° Southwest 128 147 9,200  Level Boston Center
Fri 12:36:56 PM 44.2064 -74.6644 240° Southwest 128 147 9,700 450 Climbing Boston Center
Fri 12:37:56 PM 44.1889 -74.7100 242° Southwest 133 153 10,100 150 Climbing Boston Center
Fri 12:38:56 PM 44.1669 -74.7642 241° Southwest 138 159 10,000 -57 Descending Boston Center
Fri 12:39:42 PM 44.1597 -74.8131 258° West 175 201 10,000  Level Boston Center
Fri 12:40:42 PM 44.1378 -74.8700 242° Southwest 171 197 10,000  Level Boston Center
Fri 12:41:44 PM 44.1136 -74.9269 239° Southwest 169 194 10,000  Level Boston Center
Fri 12:42:44 PM 44.0872 -74.9836 237° Southwest 169 194 10,000  Level Boston Center
Fri 12:43:56 PM 44.0506 -75.0458 231° Southwest 175 201 10,000  Level Boston Center
Fri 12:44:45 PM 44.0369 -75.0972 250° West 172 198 10,000  Level Boston Center
Fri 12:45:45 PM 44.0125 -75.1539 239° Southwest 170 196 10,000  Level Boston Center
Fri 12:46:46 PM 43.9903 -75.2106 241° Southwest 169 194 10,000  Level Boston Center
Fri 12:47:47 PM 43.9619 -75.2669 235° Southwest 171 197 10,000  Level Boston Center
Fri 12:48:47 PM 43.9375 -75.3233 239° Southwest 172 198 10,000  Level Boston Center
Fri 12:49:48 PM 43.9153 -75.3800 241° Southwest 172 198 10,000  Level Boston Center
Fri 12:50:48 PM 43.8886 -75.4392 238° Southwest 172 198 10,000  Level Boston Center
Fri 12:51:49 PM 43.8622 -75.4925 236° Southwest 171 197 10,000  Level Boston Center
Fri 12:52:52 PM 43.8333 -75.5603 239° Southwest 172 198 10,000  Level Boston Center
Fri 12:53:56 PM 43.8131 -75.6197 245° Southwest 180 207 10,000  Level Boston Center
Fri 12:55:12 PM 43.7775 -75.6953 237° Southwest 173 199 10,000  Level Boston Center
Fri 12:56:12 PM 43.7531 -75.7517 239° Southwest 172 198 10,000  Level Boston Center
Fri 12:57:13 PM 43.7306 -75.8078 241° Southwest 172 198 10,000  Level Boston Center
Fri 12:58:13 PM 43.7039 -75.8667 238° Southwest 172 198 10,000  Level Boston Center
Fri 12:59:14 PM 43.6792 -75.9256 240° Southwest 170 196 10,000  Level Boston Center
Fri 01:00:15 PM 43.6525 -75.9786 235° Southwest 170 196 10,000  Level Boston Center
Fri 01:01:15 PM 43.6297 -76.0375 242° Southwest 171 197 10,000  Level Boston Center
Fri 01:02:16 PM 43.6050 -76.0933 239° Southwest 172 198 10,000  Level Boston Center
Fri 01:03:17 PM 43.5803 -76.1464 237° Southwest 171 197 10,000  Level Boston Center
Fri 01:04:17 PM 43.5578 -76.2022 241° Southwest 171 197 10,000  Level Boston Center
Fri 01:05:18 PM 43.5283 -76.2664 238° Southwest 174 200 10,000  Level Boston Center
Fri 01:06:19 PM 43.5058 -76.3222 241° Southwest 174 200 10,000  Level Boston Center
Fri 01:07:19 PM 43.4808 -76.3808 240° Southwest 175 201 10,000 -50 Level Boston Center
Fri 01:08:20 PM 43.4539 -76.4333 235° Southwest 170 196 9,900  Descending Boston Center
Fri 01:09:21 PM 43.4289 -76.4917 239° Southwest 173 199 10,000 50 Climbing Boston Center
Fri 01:10:21 PM 43.4061 -76.5475 241° Southwest 172 198 10,000  Level Boston Center
Fri 01:11:22 PM 43.3811 -76.6058 239° Southwest 173 199 10,000  Level Boston Center
Fri 01:12:28 PM 43.3528 -76.6686 238° Southwest 175 201 10,000  Level Cleveland Center
Fri 01:13:29 PM 43.3256 -76.7275 238° Southwest 174 200 10,000  Level Cleveland Center
Fri 01:14:29 PM 43.3003 -76.7861 239° Southwest 176 203 10,000  Level Cleveland Center
Fri 01:15:30 PM 43.2731 -76.8450 238° Southwest 170 196 10,000  Level Cleveland Center
Fri 01:16:25 PM 43.2536 -76.8889 239° Southwest 168 193 10,000  Level Cleveland Center
Fri 01:17:25 PM 43.2283 -76.9417 237° Southwest 168 193 10,000  Level Cleveland Center
Fri 01:18:32 PM 43.1992 -77.0089 239° Southwest 167 192 10,000  Level Cleveland Center
Fri 01:19:33 PM 43.1778 -77.0614 241° Southwest 169 194 10,000  Level Cleveland Center
Fri 01:20:33 PM 43.1525 -77.1169 238° Southwest 171 197 10,000  Level Cleveland Center
Fri 01:21:34 PM 43.1247 -77.1725 236° Southwest 171 197 10,000  Level Cleveland Center
Fri 01:22:34 PM 43.1014 -77.2278 240° Southwest 173 199 10,000  Level Cleveland Center
Fri 01:23:35 PM 43.0758 -77.2833 238° Southwest 170 196 10,000  Level Cleveland Center
Fri 01:24:36 PM 43.0483 -77.3414 237° Southwest 168 193 10,000  Level Cleveland Center
Fri 01:25:30 PM 43.0267 -77.3881 238° Southwest 171 197 10,000  Level Cleveland Center
Fri 01:26:31 PM 43.0033 -77.4433 240° Southwest 171 197 10,000 -50 Level Cleveland Center
Fri 01:27:31 PM 42.9756 -77.5014 237° Southwest 170 196 9,900  Descending Cleveland Center
Fri 01:28:32 PM 42.9500 -77.5567 238° Southwest 169 194 10,000 49 Climbing Cleveland Center
Fri 01:29:33 PM 42.9264 -77.6089 238° Southwest 169 194 10,000  Level Cleveland Center
Fri 01:30:33 PM 42.9008 -77.6667 239° Southwest 172 198 10,000  Level Cleveland Center
Fri 01:31:34 PM 42.8750 -77.7189 236° Southwest 171 197 10,000  Level Cleveland Center
Fri 01:32:34 PM 42.8492 -77.7739 237° Southwest 170 196 10,000  Level Cleveland Center
Fri 01:33:35 PM 42.8256 -77.8317 241° Southwest 168 193 10,000  Level Cleveland Center
Fri 01:35:28 PM 42.7833 -77.9333 241° Southwest 167 192 10,000  Level Buffalo TRACON
Fri 01:36:28 PM 42.7500 -77.9833 228° Southwest 169 194 10,000  Level Buffalo TRACON
Fri 01:37:28 PM 42.7333 -78.0333 246° West 169 194 10,000  Level Buffalo TRACON
Fri 01:38:28 PM 42.7000 -78.0833 228° Southwest 166 191 10,000  Level Buffalo TRACON
Fri 01:39:28 PM 42.6833 -78.1333 246° West 164 189 10,000  Level Buffalo TRACON
Fri 01:40:29 PM 42.6500 -78.2000 236° Southwest 165 190 10,000  Level Buffalo TRACON
Fri 01:41:29 PM 42.6333 -78.2500 246° West 161 185 10,000  Level Buffalo TRACON
Fri 01:42:29 PM 42.6167 -78.3000 246° West 165 190 10,000  Level Buffalo TRACON
Fri 01:43:29 PM 42.5833 -78.3500 228° Southwest 164 189 10,000  Level Buffalo TRACON
Fri 01:44:29 PM 42.5667 -78.4000 246° West 166 191 10,000  Level Buffalo TRACON
Fri 01:45:43 PM 42.5136 -78.4536 217° Southwest 186 214 10,000 -45 Level Cleveland Center
Fri 01:46:43 PM 42.4789 -78.4914 219° Southwest 186 214 9,900 -50 Descending Cleveland Center
Fri 01:47:43 PM 42.4419 -78.5292 217° Southwest 176 203 9,900 50 Level Cleveland Center
Fri 01:48:43 PM 42.4072 -78.5669 219° Southwest 171 197 10,000 50 Climbing Cleveland Center
Fri 01:49:43 PM 42.3703 -78.6019 215° Southwest 171 197 10,000  Level Cleveland Center
Fri 01:50:43 PM 42.3333 -78.6422 219° Southwest 171 197 10,000  Level Cleveland Center
Fri 01:51:43 PM 42.3050 -78.6908 232° Southwest 171 197 10,000 -50 Level Cleveland Center
Fri 01:52:43 PM 42.2767 -78.7422 233° Southwest 171 197 9,900  Descending Cleveland Center
Fri 01:53:43 PM 42.2547 -78.7961 241° Southwest 171 197 10,000 50 Climbing Cleveland Center
Fri 01:54:43 PM 42.2325 -78.8500 241° Southwest 171 197 10,000  Level Cleveland Center
Fri 01:55:43 PM 42.2103 -78.9039 241° Southwest 171 197 10,000 -50 Level Cleveland Center
Fri 01:56:43 PM 42.1842 -78.9636 239° Southwest 177 204 9,900  Descending Cleveland Center
Fri 01:57:43 PM 42.1600 -79.0231 241° Southwest 171 197 10,000 50 Climbing Cleveland Center
Fri 01:58:43 PM 42.1336 -79.0769 237° Southwest 171 197 10,000 -50 Level Cleveland Center
Fri 01:59:43 PM 42.1114 -79.1333 242° Southwest 168 193 9,900  Descending Cleveland Center
Fri 02:00:43 PM 42.0889 -79.1814 238° Southwest 173 199 10,000  Climbing Cleveland Center
Fri 02:01:43 PM 42.0625 -79.2406 239° Southwest 173 199 9,900  Descending Cleveland Center
Fri 02:02:44 PM 42.0403 -79.2942 241° Southwest 173 199 10,000 50 Climbing Cleveland Center
Fri 02:03:43 PM 42.0139 -79.3481 237° Southwest 173 199 10,000  Level Cleveland Center
Fri 02:04:43 PM 41.9936 -79.3986 242° Southwest 168 193 10,000  Level Cleveland Center
Fri 02:06:00 PM 41.9627 -79.4701 240° Southwest  Level FlightAware Approximate
Fri 02:13:00 PM 41.7931 -79.8590 240° Southwest  Level FlightAware Approximate
Fri 02:14:00 PM 41.7688 -79.9144 240° Southwest  Level FlightAware Approximate
Fri 02:15:00 PM 41.7444 -79.9697 239° Southwest  Level FlightAware Approximate
Fri 02:16:00 PM 41.7201 -80.0250 239° Southwest  Level FlightAware Approximate
Fri 02:17:00 PM 41.6957 -80.0802 239° Southwest  Level FlightAware Approximate
Fri 02:18:00 PM 41.6712 -80.1355 239° Southwest  Level FlightAware Approximate
Fri 02:19:00 PM 41.6460 -80.1919 238° Southwest  Level FlightAware Approximate
Fri 02:20:00 PM 41.6207 -80.2463 238° Southwest  Level FlightAware Approximate
Fri 02:21:00 PM 41.5953 -80.3007 238° Southwest  Level FlightAware Approximate
Fri 02:22:00 PM 41.5700 -80.3551 238° Southwest  Level FlightAware Approximate
Fri 02:23:00 PM 41.5445 -80.4094 238° Southwest  Level FlightAware Approximate
Fri 02:24:00 PM 41.5185 -80.4631 236° Southwest  Level FlightAware Approximate
Fri 02:25:00 PM 41.4921 -80.5163 236° Southwest  Level FlightAware Approximate
Fri 02:26:00 PM 41.4657 -80.5694 236° Southwest  Level FlightAware Approximate
Fri 02:27:00 PM 41.4393 -80.6224 236° Southwest  Level FlightAware Approximate
Fri 02:28:00 PM 41.4128 -80.6754 236° Southwest  Level FlightAware Approximate
Fri 02:29:00 PM 41.3863 -80.7284 236° Southwest  Level FlightAware Approximate
Fri 02:30:00 PM 41.3599 -80.7813 236° Southwest  Level FlightAware Approximate
Fri 02:31:00 PM 41.3333 -80.8342 236° Southwest  Level FlightAware Approximate
Fri 02:32:00 PM 41.3068 -80.8870 236° Southwest  Level FlightAware Approximate
Fri 02:33:00 PM 41.2802 -80.9398 236° Southwest  Level FlightAware Approximate
Fri 02:34:00 PM 41.2599 -80.9947 231° Southwest  Level FlightAware Approximate
Fri 02:35:00 PM 41.2301 -81.0443 231° Southwest  Level FlightAware Approximate
Fri 02:36:00 PM 41.2060 -81.0985 246° West  Level FlightAware Approximate
Fri 02:37:00 PM 41.1818 -81.1530 236° Southwest  Level FlightAware Approximate
Fri 02:38:00 PM 41.1620 -81.2083 233° Southwest  Level FlightAware Approximate
Fri 02:39:00 PM 41.1332 -81.2588 233° Southwest  Level FlightAware Approximate
Fri 02:40:00 PM 41.1043 -81.3093 233° Southwest  Level FlightAware Approximate

Login

Don't have an account? Register now (free) for customized features, flight alerts, and more!